Time;durP1;ratioP1;P1;durP2;ratioP2;P2;SDS_P1;SDS_P2;PMS_P1;PMS_P2;Temp;Humidity;BMP_temperature;BMP_pressure;BME280_temperature;BME280_humidity;BME280_pressure;Samples;Min_cycle;Max_cycle;Signal;HPM_P1;HPM_P2
2023/11/08 00:00:37;;;;;;;4.90;2.00;;;7.60;76.70;;;;;;5054345;28;20685;-74
2023/11/08 00:03:02;;;;;;;5.20;1.93;;;7.60;76.50;;;;;;5054373;28;20295;-74
2023/11/08 00:05:29;;;;;;;4.83;2.10;;;7.60;76.40;;;;;;5055213;28;20193;-75
2023/11/08 00:07:55;;;;;;;5.80;2.20;;;7.60;76.20;;;;;;5054390;28;20261;-74
2023/11/08 00:10:21;;;;;;;7.30;2.00;;;7.60;76.20;;;;;;5036600;28;20531;-73
2023/11/08 00:12:46;;;;;;;2.60;1.90;;;7.60;76.10;;;;;;5040792;28;20431;-73
2023/11/08 00:15:12;;;;;;;4.80;2.10;;;7.60;76.20;;;;;;5055277;28;20457;-76
2023/11/08 00:17:38;;;;;;;4.67;2.40;;;7.50;76.40;;;;;;5054538;28;20184;-75
2023/11/08 00:20:09;;;;;;;3.67;1.80;;;7.50;76.40;;;;;;5055273;28;20244;-75
2023/11/08 00:22:34;;;;;;;4.33;2.20;;;7.50;76.40;;;;;;5054854;28;20418;-74
2023/11/08 00:25:00;;;;;;;3.80;2.40;;;7.60;76.50;;;;;;5059349;28;20451;-77
2023/11/08 00:27:26;;;;;;;4.30;2.43;;;7.60;76.70;;;;;;5053658;28;20551;-77
2023/11/08 00:29:52;;;;;;;6.00;2.40;;;7.50;77.10;;;;;;5053768;28;20223;-74
2023/11/08 00:32:21;;;;;;;6.13;2.07;;;7.50;77.60;;;;;;5053521;28;20271;-74
2023/11/08 00:34:48;;;;;;;6.67;2.50;;;7.40;77.60;;;;;;5052967;28;20458;-73
2023/11/08 00:37:13;;;;;;;5.20;2.90;;;7.40;77.70;;;;;;5053669;28;20434;-75
2023/11/08 00:39:39;;;;;;;8.33;3.00;;;7.40;78.00;;;;;;5052429;28;20470;-75
2023/11/08 00:42:05;;;;;;;4.60;1.83;;;7.40;78.10;;;;;;5053801;28;20203;-75
2023/11/08 00:44:31;;;;;;;6.37;2.63;;;7.30;78.40;;;;;;5054190;28;20657;-76
2023/11/08 00:46:56;;;;;;;7.80;2.27;;;7.10;79.70;;;;;;5054715;28;20189;-75
2023/11/08 00:49:22;;;;;;;5.90;2.37;;;7.00;80.80;;;;;;5054285;28;20449;-75
2023/11/08 00:51:48;;;;;;;6.10;2.30;;;7.00;81.40;;;;;;5052856;28;20242;-76
2023/11/08 00:54:13;;;;;;;4.20;2.03;;;7.10;81.80;;;;;;5052254;28;20550;-75
2023/11/08 00:56:39;;;;;;;3.63;1.90;;;7.10;81.90;;;;;;5053283;28;20199;-74
2023/11/08 00:59:05;;;;;;;5.73;2.90;;;7.20;82.20;;;;;;5053214;28;20204;-74
2023/11/08 01:01:34;;;;;;;4.20;2.33;;;7.20;81.90;;;;;;5052774;28;20208;-76
2023/11/08 01:04:01;;;;;;;4.47;2.37;;;7.20;82.20;;;;;;5052599;28;20578;-76
2023/11/08 01:06:28;;;;;;;5.50;2.70;;;7.20;82.50;;;;;;5052922;28;20438;-75
2023/11/08 01:08:53;;;;;;;2.87;1.70;;;7.30;82.50;;;;;;5052724;28;20427;-74
2023/11/08 01:11:19;;;;;;;19.73;3.40;;;7.30;82.20;;;;;;5052293;28;20431;-74
2023/11/08 01:13:46;;;;;;;3.33;2.10;;;7.40;81.20;;;;;;5051949;28;20200;-75
2023/11/08 01:16:13;;;;;;;5.47;2.23;;;7.50;80.90;;;;;;5052769;28;20676;-75
2023/11/08 01:18:40;;;;;;;4.77;1.87;;;7.50;80.80;;;;;;5052768;28;20963;-74
2023/11/08 01:21:05;;;;;;;3.63;1.77;;;7.50;80.30;;;;;;5052980;28;20469;-75
2023/11/08 01:23:31;;;;;;;4.03;1.90;;;7.60;80.20;;;;;;5053738;28;20439;-76
2023/11/08 01:25:57;;;;;;;6.70;2.20;;;7.60;80.20;;;;;;5053118;28;20196;-76
2023/11/08 01:28:23;;;;;;;3.70;1.50;;;7.50;80.20;;;;;;5052269;28;20293;-74
2023/11/08 01:30:49;;;;;;;5.30;1.60;;;7.60;80.50;;;;;;5052576;28;20618;-76
2023/11/08 01:33:14;;;;;;;3.47;1.57;;;7.60;79.70;;;;;;5051832;28;20486;-76
2023/11/08 01:35:40;;;;;;;2.77;1.73;;;7.60;80.00;;;;;;5052390;28;20196;-75
2023/11/08 01:38:06;;;;;;;4.23;2.03;;;7.60;79.60;;;;;;5051998;28;20232;-75
2023/11/08 01:40:32;;;;;;;3.30;1.90;;;7.50;79.60;;;;;;5051907;28;20243;-76
2023/11/08 01:42:58;;;;;;;11.90;2.60;;;7.50;79.60;;;;;;5051431;28;20192;-76
2023/11/08 01:45:24;;;;;;;2.80;1.77;;;7.50;79.50;;;;;;5052405;28;20427;-74
2023/11/08 01:47:50;;;;;;;7.53;2.03;;;7.50;79.30;;;;;;5052068;28;20427;-76
2023/11/08 01:50:18;;;;;;;8.50;2.27;;;7.50;79.20;;;;;;5052149;28;20568;-76
2023/11/08 01:52:44;;;;;;;3.60;1.63;;;7.40;79.30;;;;;;5051280;28;20279;-75
2023/11/08 01:55:10;;;;;;;2.80;1.80;;;7.50;79.50;;;;;;5052043;28;20447;-73
2023/11/08 01:57:36;;;;;;;5.50;2.40;;;7.40;79.50;;;;;;5051618;28;20711;-75
2023/11/08 02:00:05;;;;;;;3.87;2.00;;;7.40;79.50;;;;;;5051922;28;20285;-74
2023/11/08 02:02:31;;;;;;;3.30;1.80;;;7.40;79.70;;;;;;5033606;28;20780;-74
2023/11/08 02:04:57;;;;;;;3.23;1.50;;;7.30;79.60;;;;;;5053458;28;20606;-74
2023/11/08 02:07:22;;;;;;;2.53;1.70;;;7.30;79.90;;;;;;5053768;28;20465;-75
2023/11/08 02:09:49;;;;;;;2.50;1.60;;;7.30;79.70;;;;;;5053930;28;20199;-75
2023/11/08 02:12:15;;;;;;;2.57;1.50;;;7.30;79.70;;;;;;5053229;28;20196;-74
2023/11/08 02:15:04;;;;;;;3.70;1.90;;;7.30;79.70;;;;;;5052847;28;20458;-76
2023/11/08 02:17:29;;;;;;;4.00;2.13;;;7.30;80.00;;;;;;5059050;28;20574;-75
2023/11/08 02:19:55;;;;;;;2.17;1.47;;;7.20;80.30;;;;;;5066500;28;20474;-73
2023/11/08 02:22:21;;;;;;;7.70;1.60;;;7.20;80.60;;;;;;5060179;28;20346;-74
2023/11/08 02:24:46;;;;;;;6.83;1.50;;;7.10;80.90;;;;;;5051329;28;20201;-75
2023/11/08 02:27:12;;;;;;;3.73;1.87;;;7.00;81.20;;;;;;5033280;28;20911;-75
2023/11/08 02:29:38;;;;;;;7.90;1.87;;;7.00;81.50;;;;;;5051493;28;20250;-75
2023/11/08 02:32:08;;;;;;;2.80;1.20;;;7.00;81.80;;;;;;5048822;28;20189;-73
2023/11/08 02:34:34;;;;;;;4.77;1.70;;;7.00;81.90;;;;;;5050477;28;20443;-74
2023/11/08 02:37:00;;;;;;;4.80;1.70;;;7.10;81.80;;;;;;5055114;28;20415;-76
2023/11/08 02:39:26;;;;;;;4.23;1.63;;;7.10;81.80;;;;;;5050689;28;20470;-75
2023/11/08 02:41:51;;;;;;;2.90;1.57;;;7.20;81.80;;;;;;5050208;28;20223;-75
2023/11/08 02:44:18;;;;;;;6.90;1.60;;;7.20;81.70;;;;;;5050586;28;20470;-74
2023/11/08 02:46:44;;;;;;;2.40;1.40;;;7.10;81.80;;;;;;5051021;28;20264;-75
2023/11/08 02:49:11;;;;;;;1.97;1.60;;;7.20;81.90;;;;;;5050855;28;20430;-75
2023/11/08 02:51:36;;;;;;;7.13;1.43;;;7.20;81.80;;;;;;5050360;28;20223;-74
2023/11/08 02:54:02;;;;;;;3.23;1.67;;;7.20;81.80;;;;;;5050640;28;21030;-74
2023/11/08 02:56:27;;;;;;;4.67;1.50;;;7.20;81.70;;;;;;5050966;28;20306;-75
2023/11/08 02:58:54;;;;;;;4.10;1.60;;;7.20;81.70;;;;;;5050938;28;20247;-76
2023/11/08 03:01:21;;;;;;;2.23;1.50;;;7.20;81.70;;;;;;5051250;28;20637;-74
2023/11/08 03:03:47;;;;;;;3.50;1.80;;;7.20;81.80;;;;;;5052683;28;20447;-76
2023/11/08 03:06:13;;;;;;;3.17;1.77;;;7.20;81.80;;;;;;5050592;28;20519;-75
2023/11/08 03:08:39;;;;;;;5.57;1.77;;;7.20;81.80;;;;;;5051190;28;20509;-76
2023/11/08 03:11:05;;;;;;;17.63;2.23;;;7.20;82.10;;;;;;5051282;28;20188;-73
2023/11/08 03:13:32;;;;;;;1.53;1.10;;;7.20;82.10;;;;;;5052997;28;20200;-74
2023/11/08 03:15:58;;;;;;;5.13;1.87;;;7.20;82.10;;;;;;5051885;28;20423;-75
2023/11/08 03:18:25;;;;;;;4.40;1.57;;;7.20;81.90;;;;;;5052177;28;20418;-75
2023/11/08 03:20:50;;;;;;;2.53;2.00;;;7.20;82.10;;;;;;5051067;28;20474;-74
2023/11/08 03:23:16;;;;;;;2.87;1.80;;;7.20;82.20;;;;;;5050295;28;20539;-74
2023/11/08 03:25:42;;;;;;;3.73;2.17;;;7.10;82.40;;;;;;5051217;28;20839;-74
2023/11/08 03:28:07;;;;;;;11.40;1.80;;;7.00;82.70;;;;;;5051710;28;20281;-76
2023/11/08 03:30:36;;;;;;;5.70;1.67;;;6.90;82.80;;;;;;5050712;28;20263;-74
2023/11/08 03:33:02;;;;;;;3.30;1.87;;;6.90;83.30;;;;;;5050192;28;20188;-75
2023/11/08 03:35:27;;;;;;;4.67;1.90;;;6.90;83.30;;;;;;5050395;28;20492;-76
2023/11/08 03:37:54;;;;;;;3.33;1.70;;;6.90;83.30;;;;;;5050481;28;20294;-75
2023/11/08 03:40:20;;;;;;;6.70;1.90;;;7.00;83.10;;;;;;5050488;28;20216;-75
2023/11/08 03:42:46;;;;;;;2.77;1.67;;;7.10;82.50;;;;;;5049680;28;20842;-75
2023/11/08 03:45:12;;;;;;;6.13;2.10;;;7.20;82.20;;;;;;5049977;28;20212;-75
2023/11/08 03:47:38;;;;;;;3.17;1.60;;;7.20;82.10;;;;;;5050846;28;20196;-75
2023/11/08 03:50:05;;;;;;;6.13;1.70;;;7.30;81.80;;;;;;5050833;28;20427;-75
2023/11/08 03:52:31;;;;;;;5.10;1.83;;;7.30;81.70;;;;;;5050039;28;20433;-76
2023/11/08 03:54:57;;;;;;;2.70;1.60;;;7.30;81.40;;;;;;5050306;28;20459;-75
2023/11/08 03:57:23;;;;;;;3.73;1.50;;;7.30;81.40;;;;;;5050868;28;20506;-74
2023/11/08 03:59:49;;;;;;;4.20;1.70;;;7.40;80.90;;;;;;5051559;28;20466;-74
2023/11/08 04:02:17;;;;;;;5.70;1.67;;;7.50;80.80;;;;;;5050749;28;20513;-74
2023/11/08 04:04:44;;;;;;;2.20;1.47;;;7.50;80.60;;;;;;5049987;28;20477;-75
2023/11/08 04:07:10;;;;;;;6.20;1.80;;;7.50;80.50;;;;;;5052121;28;20430;-76
2023/11/08 04:09:35;;;;;;;2.80;1.40;;;7.60;80.30;;;;;;5067385;28;20436;-76
2023/11/08 04:12:01;;;;;;;2.80;1.60;;;7.70;79.90;;;;;;5078824;28;20525;-73
2023/11/08 04:14:27;;;;;;;4.10;1.60;;;7.70;79.70;;;;;;5073826;28;20291;-76
2023/11/08 04:16:54;;;;;;;2.33;1.60;;;7.70;79.90;;;;;;5077326;28;20662;-75
2023/11/08 04:19:19;;;;;;;16.10;2.27;;;7.70;79.90;;;;;;5077067;28;20579;-74
2023/11/08 04:21:45;;;;;;;5.30;1.97;;;7.70;79.90;;;;;;5076925;28;20422;-75
2023/11/08 04:24:11;;;;;;;4.37;1.57;;;7.70;80.00;;;;;;5077253;28;20200;-76
2023/11/08 04:26:36;;;;;;;3.67;1.77;;;7.70;80.00;;;;;;5076889;28;20184;-74
2023/11/08 04:29:02;;;;;;;3.97;1.90;;;7.70;80.20;;;;;;5076816;28;20226;-75
2023/11/08 04:31:28;;;;;;;3.50;2.10;;;7.70;80.00;;;;;;5073859;28;20288;-74
2023/11/08 04:33:53;;;;;;;6.50;2.20;;;7.60;80.20;;;;;;5058045;28;20586;-74
2023/11/08 04:36:19;;;;;;;6.80;3.00;;;7.60;80.00;;;;;;5063507;28;20248;-75
2023/11/08 04:38:45;;;;;;;6.00;2.13;;;7.70;79.70;;;;;;5073248;28;20183;-76
2023/11/08 04:41:14;;;;;;;1.87;1.50;;;7.80;79.50;;;;;;5072997;28;20199;-76
2023/11/08 04:43:42;;;;;;;10.27;1.90;;;7.80;79.20;;;;;;5072839;28;20519;-75
2023/11/08 04:46:08;;;;;;;2.27;1.47;;;7.80;79.30;;;;;;5073203;28;20529;-74
2023/11/08 04:48:33;;;;;;;4.40;1.90;;;7.90;79.30;;;;;;5073822;28;20929;-74
2023/11/08 04:51:00;;;;;;;3.83;2.13;;;7.80;79.30;;;;;;5073797;28;20804;-74
2023/11/08 04:53:26;;;;;;;5.20;2.03;;;7.80;79.30;;;;;;5072903;28;20470;-75
2023/11/08 04:55:51;;;;;;;4.50;1.97;;;7.70;79.50;;;;;;5074715;28;20419;-74
2023/11/08 04:58:17;;;;;;;3.07;1.97;;;7.70;79.60;;;;;;5074070;28;20203;-75
2023/11/08 05:00:42;;;;;;;2.93;1.77;;;7.70;79.70;;;;;;5073447;28;20226;-75
2023/11/08 05:03:08;;;;;;;6.93;2.13;;;7.80;79.70;;;;;;5072189;28;20203;-74
2023/11/08 05:05:34;;;;;;;5.43;2.10;;;7.70;80.60;;;;;;5073679;28;20176;-75
2023/11/08 05:07:59;;;;;;;10.97;2.77;;;7.50;81.50;;;;;;5073146;28;20271;-75
2023/11/08 05:10:25;;;;;;;5.03;1.80;;;7.50;82.10;;;;;;5073459;28;20188;-75
2023/11/08 05:12:51;;;;;;;4.30;2.00;;;7.50;82.20;;;;;;5071848;28;20207;-76
2023/11/08 05:15:17;;;;;;;4.33;2.07;;;7.50;82.70;;;;;;5072655;28;20242;-74
2023/11/08 05:17:43;;;;;;;6.37;2.17;;;7.50;82.40;;;;;;5072366;28;20818;-73
2023/11/08 05:20:10;;;;;;;4.40;2.17;;;7.50;82.20;;;;;;5072821;28;20227;-75
2023/11/08 05:22:38;;;;;;;6.80;2.20;;;7.50;81.90;;;;;;5072114;28;20820;-75
2023/11/08 05:25:04;;;;;;;6.47;2.50;;;7.50;81.90;;;;;;5077532;28;20457;-75
2023/11/08 05:27:30;;;;;;;4.07;2.43;;;7.50;81.50;;;;;;5081118;28;20551;-74
2023/11/08 05:29:55;;;;;;;8.57;3.13;;;7.50;81.70;;;;;;5072566;28;20471;-75
2023/11/08 05:32:23;;;;;;;7.30;2.70;;;7.50;81.70;;;;;;5054057;28;20191;-75
2023/11/08 05:34:49;;;;;;;7.43;2.53;;;7.40;81.50;;;;;;5049479;28;20515;-75
2023/11/08 05:37:14;;;;;;;3.40;2.23;;;7.40;81.70;;;;;;5052312;28;20423;-76
2023/11/08 05:39:42;;;;;;;5.07;2.13;;;7.30;81.50;;;;;;5052416;28;20470;-74
2023/11/08 05:42:08;;;;;;;8.63;2.50;;;7.30;81.70;;;;;;5052022;28;20197;-74
2023/11/08 05:44:33;;;;;;;7.20;2.57;;;7.40;81.50;;;;;;5051799;28;20438;-75
2023/11/08 05:46:59;;;;;;;8.10;2.50;;;7.30;81.40;;;;;;5051944;28;20207;-74
2023/11/08 05:49:24;;;;;;;8.20;2.47;;;7.30;81.40;;;;;;5052246;28;20197;-74
2023/11/08 05:51:50;;;;;;;3.50;2.60;;;7.30;81.50;;;;;;5054457;28;20184;-75
2023/11/08 05:54:15;;;;;;;4.27;2.50;;;7.30;81.40;;;;;;5056040;28;20293;-74
2023/11/08 05:56:42;;;;;;;5.93;2.77;;;7.30;81.70;;;;;;5055537;28;20265;-75
2023/11/08 05:59:08;;;;;;;4.53;2.10;;;7.30;81.80;;;;;;5052798;28;20256;-74
2023/11/08 06:01:34;;;;;;;5.70;2.33;;;7.30;81.90;;;;;;5054068;28;20419;-74
2023/11/08 06:03:59;;;;;;;4.03;2.60;;;7.30;81.80;;;;;;5055998;28;20636;-74
2023/11/08 06:06:27;;;;;;;5.37;2.80;;;7.30;81.70;;;;;;5038555;28;20656;-74
2023/11/08 06:08:53;;;;;;;6.23;3.20;;;7.30;81.50;;;;;;5051831;28;20231;-75
2023/11/08 06:11:19;;;;;;;8.40;2.70;;;7.30;81.50;;;;;;5050988;28;20505;-75
2023/11/08 06:13:45;;;;;;;6.90;2.53;;;7.20;81.70;;;;;;5050960;28;20459;-76
2023/11/08 06:16:11;;;;;;;12.10;4.20;;;7.30;81.40;;;;;;5052187;28;20484;-75
2023/11/08 06:18:36;;;;;;;6.73;2.73;;;7.30;81.20;;;;;;5051993;28;20188;-74
2023/11/08 06:21:03;;;;;;;4.23;2.70;;;7.30;81.40;;;;;;5052546;28;20957;-76
2023/11/08 06:23:30;;;;;;;5.83;2.63;;;7.30;81.70;;;;;;5051961;28;20257;-74
2023/11/08 06:25:56;;;;;;;9.40;3.10;;;7.20;81.70;;;;;;5052214;28;20439;-75
2023/11/08 06:28:22;;;;;;;6.87;2.83;;;7.20;81.90;;;;;;5051955;28;20439;-76
2023/11/08 06:30:47;;;;;;;4.23;3.00;;;7.20;82.10;;;;;;5052842;28;20437;-75
2023/11/08 06:33:13;;;;;;;22.40;4.03;;;7.10;82.20;;;;;;5052077;28;20246;-74
2023/11/08 06:35:41;;;;;;;5.27;2.70;;;7.10;82.50;;;;;;5039548;28;20557;-75
2023/11/08 06:38:07;;;;;;;9.00;3.40;;;7.00;82.50;;;;;;5053048;28;20190;-76
2023/11/08 06:40:32;;;;;;;14.13;3.60;;;7.00;82.70;;;;;;5053680;28;20463;-74
2023/11/08 06:42:58;;;;;;;16.20;3.27;;;6.90;82.80;;;;;;5052139;28;20474;-74
2023/11/08 06:45:24;;;;;;;5.50;2.70;;;6.90;83.10;;;;;;5052938;28;20242;-75
2023/11/08 06:47:49;;;;;;;4.97;2.90;;;7.00;82.80;;;;;;5053039;28;20184;-75
2023/11/08 06:50:15;;;;;;;4.67;2.70;;;7.00;82.70;;;;;;5053043;28;20652;-75
2023/11/08 06:52:41;;;;;;;5.77;3.57;;;7.00;82.70;;;;;;5053285;28;20199;-75
2023/11/08 06:55:07;;;;;;;6.33;3.00;;;7.00;82.80;;;;;;5052838;28;20204;-73
2023/11/08 06:57:32;;;;;;;5.27;2.30;;;7.10;82.70;;;;;;5052585;28;20199;-76
2023/11/08 07:00:02;;;;;;;4.50;3.33;;;7.10;82.20;;;;;;5051828;28;20479;-74
2023/11/08 07:02:28;;;;;;;7.07;2.93;;;7.10;82.40;;;;;;5033449;28;20184;-76
2023/11/08 07:04:54;;;;;;;6.70;2.90;;;7.10;82.40;;;;;;5033391;28;20447;-76
2023/11/08 07:07:20;;;;;;;6.07;2.80;;;7.20;82.20;;;;;;5053042;28;20521;-74
2023/11/08 07:09:47;;;;;;;4.97;2.60;;;7.20;82.40;;;;;;5051513;28;20450;-75
2023/11/08 07:12:13;;;;;;;7.00;2.67;;;7.20;82.40;;;;;;5052729;28;20419;-74
2023/11/08 07:14:39;;;;;;;6.03;2.47;;;7.30;81.90;;;;;;5053136;28;20466;-74
2023/11/08 07:17:06;;;;;;;5.87;2.77;;;7.30;81.90;;;;;;5053537;28;20434;-75
2023/11/08 07:19:32;;;;;;;5.20;2.67;;;7.40;81.90;;;;;;5052309;28;20716;-75
2023/11/08 07:21:57;;;;;;;5.60;2.70;;;7.30;81.70;;;;;;5053014;28;20426;-75
2023/11/08 07:24:23;;;;;;;6.60;2.90;;;7.30;81.90;;;;;;5053468;28;20212;-75
2023/11/08 07:26:50;;;;;;;5.80;2.50;;;7.30;82.10;;;;;;5051612;28;20191;-78
2023/11/08 07:29:17;;;;;;;8.33;2.33;;;7.40;81.70;;;;;;5053189;28;20199;-75
2023/11/08 07:31:42;;;;;;;4.87;2.43;;;7.40;81.70;;;;;;5061927;28;20438;-76
2023/11/08 07:34:08;;;;;;;9.13;2.93;;;7.40;81.70;;;;;;5061287;28;20562;-74
2023/11/08 07:36:34;;;;;;;4.90;2.03;;;7.40;81.50;;;;;;5054569;28;20212;-76
2023/11/08 07:39:01;;;;;;;7.13;2.63;;;7.50;81.20;;;;;;5053047;28;20592;-76
2023/11/08 07:41:27;;;;;;;7.30;2.20;;;7.60;80.60;;;;;;5053908;28;20699;-75
2023/11/08 07:43:52;;;;;;;5.50;2.07;;;7.50;80.60;;;;;;5052113;28;20482;-76
2023/11/08 07:46:18;;;;;;;6.03;2.33;;;7.60;80.80;;;;;;5051296;28;20230;-76
2023/11/08 07:48:44;;;;;;;4.20;2.20;;;7.70;80.50;;;;;;5053445;28;20226;-75
2023/11/08 07:51:10;;;;;;;9.00;2.63;;;7.60;80.50;;;;;;5055572;28;20209;-78
2023/11/08 07:53:36;;;;;;;3.93;2.40;;;7.70;79.90;;;;;;5059027;28;20212;-74
2023/11/08 07:56:04;;;;;;;10.80;2.77;;;7.80;79.70;;;;;;5055829;28;20435;-76
2023/11/08 07:58:30;;;;;;;2.63;1.70;;;7.80;79.50;;;;;;5060065;28;20957;-75
2023/11/08 08:00:55;;;;;;;3.40;1.93;;;7.90;79.00;;;;;;5055490;28;20466;-76
2023/11/08 08:03:21;;;;;;;5.10;1.80;;;8.00;78.70;;;;;;5054244;28;20285;-77
2023/11/08 08:05:46;;;;;;;4.43;2.10;;;8.00;78.60;;;;;;5055104;28;20227;-75
2023/11/08 08:08:13;;;;;;;4.40;1.90;;;8.10;78.40;;;;;;5054534;28;20207;-75
2023/11/08 08:10:44;;;;;;;6.43;1.97;;;8.10;78.60;;;;;;5037692;28;20184;-76
2023/11/08 08:13:10;;;;;;;6.80;3.30;;;8.20;78.10;;;;;;5036538;28;20470;-76
2023/11/08 08:15:36;;;;;;;3.63;2.10;;;8.20;77.80;;;;;;5054556;28;20446;-76
2023/11/08 08:18:01;;;;;;;6.43;2.23;;;8.30;77.60;;;;;;5054738;28;20652;-78
2023/11/08 08:20:28;;;;;;;6.03;1.87;;;8.40;77.10;;;;;;5056364;28;20208;-76
2023/11/08 08:22:55;;;;;;;2.77;1.63;;;8.40;77.10;;;;;;5056992;28;20196;-77
2023/11/08 08:25:24;;;;;;;6.87;2.37;;;8.40;77.10;;;;;;5059185;28;20462;-76
2023/11/08 08:27:50;;;;;;;3.30;2.20;;;8.50;76.70;;;;;;5059987;28;20837;-78
2023/11/08 08:30:16;;;;;;;4.50;1.97;;;8.50;77.00;;;;;;5059560;28;20431;-76
2023/11/08 08:32:43;;;;;;;3.13;2.10;;;8.60;76.70;;;;;;5058602;28;20934;-76
2023/11/08 08:35:09;;;;;;;5.30;2.17;;;8.70;76.70;;;;;;5057682;28;20438;-75
2023/11/08 08:37:35;;;;;;;3.67;2.00;;;8.80;76.20;;;;;;5055484;28;20947;-76
2023/11/08 08:40:01;;;;;;;2.83;1.53;;;8.80;76.20;;;;;;5055023;28;20524;-75
2023/11/08 08:42:26;;;;;;;4.17;2.03;;;8.90;75.90;;;;;;5054705;28;20184;-76
2023/11/08 08:44:52;;;;;;;3.67;1.40;;;8.90;76.10;;;;;;5054848;28;20212;-75
2023/11/08 08:47:19;;;;;;;3.53;1.67;;;9.00;75.80;;;;;;5060454;28;20183;-76
2023/11/08 08:49:44;;;;;;;2.60;1.50;;;9.00;75.80;;;;;;5055917;28;20196;-77
2023/11/08 08:52:10;;;;;;;1.93;1.37;;;9.10;75.80;;;;;;5073850;28;20418;-74
2023/11/08 08:54:36;;;;;;;3.97;1.60;;;9.20;75.70;;;;;;5055607;28;20727;-76
2023/11/08 08:57:02;;;;;;;4.83;2.10;;;9.30;75.20;;;;;;5075056;28;20212;-75
2023/11/08 08:59:28;;;;;;;6.70;1.80;;;9.40;74.60;;;;;;5073604;28;20290;-76
2023/11/08 09:01:54;;;;;;;1.80;1.20;;;9.40;74.00;;;;;;5076370;28;20434;-74
2023/11/08 09:04:19;;;;;;;1.97;1.10;;;9.50;73.30;;;;;;5074265;28;20449;-77
2023/11/08 09:06:45;;;;;;;5.87;1.10;;;9.50;72.90;;;;;;5073509;28;20248;-76
2023/11/08 09:09:13;;;;;;;4.10;1.60;;;9.60;73.00;;;;;;5073218;28;20187;-75
2023/11/08 09:11:42;;;;;;;3.17;1.57;;;9.70;72.90;;;;;;5073366;28;20192;-74
2023/11/08 09:14:08;;;;;;;5.53;1.30;;;9.70;72.40;;;;;;5073192;28;20446;-75
2023/11/08 09:16:35;;;;;;;8.57;1.50;;;9.80;72.90;;;;;;5075136;28;20430;-75
2023/11/08 09:19:01;;;;;;;4.27;1.60;;;9.80;73.00;;;;;;5074417;28;20486;-75
2023/11/08 09:21:27;;;;;;;2.50;1.37;;;9.90;73.30;;;;;;5074148;28;20432;-75
2023/11/08 09:23:52;;;;;;;3.00;0.83;;;9.90;72.40;;;;;;5072884;28;20450;-76
2023/11/08 09:26:18;;;;;;;2.50;1.60;;;9.90;72.10;;;;;;5073224;28;20187;-75
2023/11/08 09:28:44;;;;;;;2.87;1.40;;;9.90;72.40;;;;;;5073563;28;20585;-77
2023/11/08 09:31:11;;;;;;;10.80;1.40;;;9.90;72.40;;;;;;5074096;28;20670;-76
2023/11/08 09:33:37;;;;;;;3.03;1.50;;;9.90;72.10;;;;;;5061260;28;20296;-75
2023/11/08 09:36:03;;;;;;;1.60;1.30;;;10.00;72.00;;;;;;5057640;28;20447;-74
2023/11/08 09:38:29;;;;;;;5.30;1.60;;;10.00;72.00;;;;;;5058382;28;20611;-74
2023/11/08 09:40:55;;;;;;;3.60;1.10;;;10.00;71.60;;;;;;5059439;28;20474;-74
2023/11/08 09:43:22;;;;;;;3.83;1.37;;;10.10;71.40;;;;;;5056764;28;20454;-75
2023/11/08 09:45:50;;;;;;;4.20;1.40;;;10.20;71.30;;;;;;5054652;28;20426;-76
2023/11/08 09:48:18;;;;;;;3.07;1.37;;;10.20;71.30;;;;;;5055160;28;20441;-76
2023/11/08 09:50:46;;;;;;;2.07;1.20;;;10.30;71.00;;;;;;5060635;28;20427;-74
2023/11/08 09:53:12;;;;;;;6.27;1.70;;;10.30;70.40;;;;;;5065331;28;20927;-74
2023/11/08 09:55:38;;;;;;;1.60;1.00;;;10.30;70.20;;;;;;5074631;28;20456;-75
2023/11/08 09:58:06;;;;;;;2.07;1.30;;;10.30;69.90;;;;;;5077529;28;20426;-76
2023/11/08 10:00:32;;;;;;;3.60;1.40;;;10.30;69.70;;;;;;5072953;28;20234;-76
2023/11/08 10:02:58;;;;;;;1.57;1.10;;;10.40;69.70;;;;;;5071745;28;20941;-75
2023/11/08 10:05:25;;;;;;;2.57;1.10;;;10.40;69.50;;;;;;5072918;28;20430;-76
2023/11/08 10:07:51;;;;;;;2.13;1.30;;;10.40;69.50;;;;;;5072609;28;20434;-75
2023/11/08 10:10:18;;;;;;;5.63;1.40;;;10.50;69.20;;;;;;5072362;28;20910;-73
2023/11/08 10:12:44;;;;;;;2.83;1.30;;;10.40;69.40;;;;;;5071621;28;20422;-76
2023/11/08 10:15:11;;;;;;;2.30;1.30;;;10.30;69.40;;;;;;5071902;28;20453;-75
2023/11/08 10:17:37;;;;;;;2.63;1.17;;;10.30;69.70;;;;;;5072002;28;20441;-76
2023/11/08 10:20:08;;;;;;;3.73;1.10;;;10.20;69.70;;;;;;5072302;28;20474;-75
2023/11/08 10:22:33;;;;;;;4.23;1.20;;;10.20;69.90;;;;;;5071294;28;20436;-74
2023/11/08 10:25:02;;;;;;;7.70;1.40;;;10.20;70.10;;;;;;5072073;28;20434;-75
2023/11/08 10:27:29;;;;;;;3.63;1.20;;;10.30;70.40;;;;;;5071588;28;20199;-75
2023/11/08 10:30:14;;;;;;;1.80;1.23;;;10.50;69.80;;;;;;5072343;28;20904;-76
2023/11/08 10:32:39;;;;;;;2.63;1.20;;;10.80;68.90;;;;;;5071959;28;20834;-73
2023/11/08 10:35:25;;;;;;;1.40;1.10;;;10.90;68.80;;;;;;5048540;28;20504;-74
2023/11/08 10:37:51;;;;;;;2.97;1.30;;;10.80;68.80;;;;;;5041197;28;20201;-75
2023/11/08 10:40:18;;;;;;;1.80;1.50;;;10.80;68.60;;;;;;5051478;28;20459;-76
2023/11/08 10:42:55;;;;;;;2.27;1.13;;;10.80;68.80;;;;;;5050712;28;20437;-74
2023/11/08 10:45:21;;;;;;;2.23;1.23;;;10.80;69.10;;;;;;5051637;28;20446;-76
2023/11/08 10:47:48;;;;;;;1.40;1.30;;;10.90;68.90;;;;;;5051480;28;20419;-76
2023/11/08 10:50:15;;;;;;;3.83;1.50;;;11.00;68.60;;;;;;5051352;28;20429;-75
2023/11/08 10:52:46;;;;;;;1.60;1.20;;;11.00;68.50;;;;;;5050439;28;20454;-75
2023/11/08 10:55:12;;;;;;;3.10;1.50;;;11.20;68.30;;;;;;5051662;28;20462;-74
2023/11/08 10:57:41;;;;;;;1.50;1.00;;;11.30;68.20;;;;;;5051453;28;20422;-74
2023/11/08 11:00:08;;;;;;;2.80;1.53;;;11.50;67.60;;;;;;5051539;28;20488;-74
2023/11/08 11:02:36;;;;;;;3.20;1.37;;;11.60;67.70;;;;;;5050463;28;20430;-75
2023/11/08 11:05:04;;;;;;;2.77;1.00;;;11.50;67.60;;;;;;5050918;28;20451;-75
2023/11/08 11:07:31;;;;;;;1.70;1.17;;;11.40;68.20;;;;;;5051458;28;20431;-76
2023/11/08 11:09:57;;;;;;;2.13;1.40;;;11.30;68.50;;;;;;5051872;28;20415;-75
2023/11/08 11:12:36;;;;;;;2.00;1.20;;;11.30;68.80;;;;;;5051531;28;20472;-76
2023/11/08 11:15:09;;;;;;;2.00;1.20;;;11.30;68.50;;;;;;5053332;28;20439;-75
2023/11/08 11:17:44;;;;;;;5.40;1.50;;;11.40;68.20;;;;;;5052603;28;20464;-73
2023/11/08 11:20:14;;;;;;;4.97;1.30;;;11.30;68.50;;;;;;5053965;28;20462;-75
2023/11/08 11:22:41;;;;;;;4.20;1.53;;;11.30;68.80;;;;;;5053881;28;21018;-75
2023/11/08 11:25:11;;;;;;;2.73;1.30;;;11.30;68.80;;;;;;5053364;28;20458;-76
2023/11/08 11:27:40;;;;;;;2.50;1.30;;;11.30;68.80;;;;;;5051006;28;20443;-75
2023/11/08 11:30:15;;;;;;;3.17;1.40;;;11.30;68.90;;;;;;5051462;28;20422;-76
2023/11/08 11:32:46;;;;;;;3.50;1.30;;;11.50;68.90;;;;;;5051318;28;20422;-76
2023/11/08 11:35:18;;;;;;;2.40;0.90;;;11.60;67.90;;;;;;5052029;28;20435;-77
2023/11/08 11:38:05;;;;;;;1.60;1.10;;;11.60;67.30;;;;;;5052686;28;20509;-74
2023/11/08 11:40:32;;;;;;;1.50;1.00;;;11.70;67.20;;;;;;5051845;28;20474;-76
2023/11/08 11:42:59;;;;;;;3.10;1.17;;;11.70;67.20;;;;;;5053297;28;20924;-75
2023/11/08 11:45:30;;;;;;;2.80;1.20;;;11.60;67.60;;;;;;5057581;28;20450;-75
2023/11/08 11:47:56;;;;;;;5.87;1.47;;;11.60;67.60;;;;;;5059767;28;20793;-75
2023/11/08 11:50:23;;;;;;;1.40;1.10;;;11.60;67.50;;;;;;5051965;28;20502;-76
2023/11/08 11:52:49;;;;;;;1.60;1.20;;;11.70;67.30;;;;;;5050983;28;20442;-74
2023/11/08 11:55:15;;;;;;;3.40;1.40;;;11.60;67.50;;;;;;5051109;28;20447;-75
2023/11/08 11:57:41;;;;;;;2.20;1.00;;;11.60;67.50;;;;;;5051209;28;20196;-75
2023/11/08 12:00:10;;;;;;;2.00;1.20;;;11.60;67.70;;;;;;5050726;28;20563;-75
2023/11/08 12:02:36;;;;;;;1.50;1.00;;;11.60;67.90;;;;;;5050099;28;20641;-74
2023/11/08 12:05:03;;;;;;;2.40;1.00;;;11.70;68.00;;;;;;5050889;28;20434;-76
2023/11/08 12:07:29;;;;;;;2.43;1.20;;;11.80;67.50;;;;;;5051370;28;20423;-76
2023/11/08 12:09:55;;;;;;;1.63;1.03;;;11.70;67.50;;;;;;5053282;28;20920;-76
2023/11/08 12:12:31;;;;;;;3.17;1.00;;;11.70;67.30;;;;;;5063418;28;20222;-75
2023/11/08 12:14:57;;;;;;;3.07;1.20;;;11.60;67.50;;;;;;5063634;28;20218;-74
2023/11/08 12:17:24;;;;;;;1.30;0.80;;;11.70;66.70;;;;;;5051758;28;20430;-75
2023/11/08 12:19:50;;;;;;;2.37;1.37;;;11.70;66.90;;;;;;5051651;28;20535;-74
2023/11/08 12:22:16;;;;;;;1.20;0.90;;;11.70;66.70;;;;;;5050968;28;20511;-75
2023/11/08 12:24:41;;;;;;;3.83;1.30;;;11.80;67.20;;;;;;5050238;28;20814;-76
2023/11/08 12:27:07;;;;;;;5.37;1.50;;;11.80;67.20;;;;;;5051328;28;20188;-74
2023/11/08 12:29:32;;;;;;;5.40;1.17;;;11.80;66.70;;;;;;5051118;28;20203;-76
2023/11/08 12:32:00;;;;;;;1.73;1.10;;;11.80;66.90;;;;;;5052116;28;20193;-75
2023/11/08 12:34:26;;;;;;;1.70;1.10;;;11.70;67.30;;;;;;5050906;28;20291;-76
2023/11/08 12:36:53;;;;;;;3.90;1.27;;;12.00;67.00;;;;;;5055574;28;20879;-75
2023/11/08 12:39:21;;;;;;;2.90;1.40;;;12.20;66.40;;;;;;5053886;28;20219;-74
2023/11/08 12:41:49;;;;;;;4.93;1.63;;;12.40;66.00;;;;;;5053730;28;20445;-75
2023/11/08 12:44:16;;;;;;;2.07;1.20;;;12.50;66.10;;;;;;5053752;28;20488;-76
2023/11/08 12:46:56;;;;;;;7.43;1.90;;;12.50;65.60;;;;;;5053591;28;20447;-75
2023/11/08 12:49:32;;;;;;;3.73;1.10;;;12.60;65.70;;;;;;5053638;28;20560;-76